Terminal Aerodrome Forecast
Issued by NWS Tampa Bay Area, FL

Home | Current Version | Previous Version | Text Only | Print | Product List | Glossary On
Versions: 1 2 3 4 5 6 7 8 9 10 11 12 13 14 15 16 17 18 19 20 21 22 23 24 25 26 27 28 29
000
FTUS42 KTBW 301700
TAFTPA
TAF
KTPA 301740Z 3018/0118 27008KT P6SM VCTS SCT030CB BKN060 BKN250
      TEMPO 3018/3020 VRB15G25KT 3SM TSRA BKN025CB
     FM010200 VRB03KT P6SM VCSH SCT020 BKN100
     FM011500 24006KT P6SM VCTS SCT035CB BKN060=

USA.gov is the U.S. government's official web portal to all federal, state and local government web resources and services.